createdAt,value
2018-06-17T00:00:37.149Z,64.27
2018-06-17T00:01:37.059Z,64.25
2018-06-17T00:02:37.034Z,64.2
2018-06-17T00:03:37.112Z,64.25
2018-06-17T00:04:37.031Z,64.23
2018-06-17T00:05:37.098Z,64.2
2018-06-17T00:06:36.957Z,64.21
2018-06-17T00:07:37.119Z,64.23
2018-06-17T00:08:37.088Z,64.21
2018-06-17T00:09:37.026Z,64.21
2018-06-17T00:10:37.062Z,64.21
2018-06-17T00:11:37.067Z,64.21
2018-06-17T00:12:37.324Z,64.19
2018-06-17T00:13:37.024Z,64.2
2018-06-17T00:14:36.962Z,64.2
2018-06-17T00:15:36.961Z,64.19
2018-06-17T00:16:37.083Z,64.21
2018-06-17T00:17:37.052Z,64.19
2018-06-17T00:18:37.065Z,64.21
2018-06-17T00:19:37.217Z,64.23
2018-06-17T00:20:36.993Z,64.23
2018-06-17T00:21:37.064Z,64.26
2018-06-17T00:22:37.250Z,64.21
2018-06-17T00:23:37.186Z,64.23
2018-06-17T00:24:36.975Z,64.24
2018-06-17T00:25:36.952Z,64.23
2018-06-17T00:26:37.095Z,64.2
2018-06-17T00:27:37.017Z,64.21
2018-06-17T00:28:36.960Z,64.23
2018-06-17T00:29:37.204Z,64.2
2018-06-17T00:30:37.201Z,64.22
2018-06-17T00:31:37.128Z,64.22
2018-06-17T00:32:37.226Z,64.23
2018-06-17T00:33:37.013Z,64.26
2018-06-17T00:34:37.146Z,64.23
2018-06-17T00:35:37.144Z,64.2
2018-06-17T00:36:37.136Z,64.23
2018-06-17T00:37:37.219Z,64.23
2018-06-17T00:38:37.033Z,64.26
2018-06-17T00:39:37.199Z,64.24
2018-06-17T00:40:37.031Z,64.26
2018-06-17T00:41:37.017Z,64.26
2018-06-17T00:42:47.059Z,64.24
2018-06-17T00:43:37.254Z,64.24
2018-06-17T00:44:36.929Z,64.26
2018-06-17T00:45:37.089Z,64.25
2018-06-17T00:46:37.264Z,64.26
2018-06-17T00:47:36.998Z,64.26
2018-06-17T00:48:37.241Z,64.27
2018-06-17T00:49:36.931Z,64.23
2018-06-17T00:50:36.967Z,64.29
2018-06-17T00:51:37.198Z,64.28
2018-06-17T00:52:36.987Z,64.25
2018-06-17T00:53:37.065Z,64.25
2018-06-17T00:54:37.233Z,64.26
2018-06-17T00:55:37.321Z,64.21
2018-06-17T00:56:36.976Z,64.23
2018-06-17T00:57:37.251Z,64.25
2018-06-17T00:58:36.993Z,64.22
2018-06-17T00:59:37.198Z,64.21
2018-06-17T01:00:37.031Z,64.22
2018-06-17T01:01:37.111Z,64.21
2018-06-17T01:02:36.986Z,64.19
2018-06-17T01:03:37.162Z,64.21
2018-06-17T01:04:37.090Z,64.22
2018-06-17T01:05:37.132Z,64.26
2018-06-17T01:06:37.213Z,64.31
2018-06-17T01:07:36.957Z,64.29
2018-06-17T01:08:37.022Z,64.28
2018-06-17T01:09:37.230Z,64.28
2018-06-17T01:10:37.063Z,64.3
2018-06-17T01:11:37.046Z,64.29
2018-06-17T01:12:37.116Z,64.26
2018-06-17T01:13:37.026Z,64.26
2018-06-17T01:14:37.083Z,64.22
2018-06-17T01:15:37.200Z,64.28
2018-06-17T01:16:36.922Z,64.22
2018-06-17T01:17:37.279Z,64.27
2018-06-17T01:18:37.004Z,64.24
2018-06-17T01:19:37.109Z,64.23
2018-06-17T01:20:37.102Z,64.28
2018-06-17T01:21:36.980Z,64.28
2018-06-17T01:22:37.147Z,64.27
2018-06-17T01:23:36.954Z,64.28
2018-06-17T01:24:37.116Z,64.25
2018-06-17T01:26:08.019Z,64.27
2018-06-17T01:26:36.942Z,64.28
2018-06-17T01:27:36.980Z,64.26
2018-06-17T01:28:36.964Z,64.27
2018-06-17T01:29:37.040Z,64.25
2018-06-17T01:30:36.979Z,64.29
2018-06-17T01:31:37.080Z,64.31
2018-06-17T01:32:37.054Z,64.3
2018-06-17T01:33:37.136Z,64.29
2018-06-17T01:34:37.259Z,64.3
2018-06-17T01:35:37.184Z,64.28
2018-06-17T01:36:36.970Z,64.31
2018-06-17T01:37:36.918Z,64.34
2018-06-17T01:38:37.043Z,64.33
2018-06-17T01:39:37.272Z,64.31
2018-06-17T01:40:37.358Z,64.28
2018-06-17T01:41:37.115Z,64.29
2018-06-17T01:42:37.039Z,64.29
2018-06-17T01:43:37.166Z,64.31
2018-06-17T01:44:37.356Z,64.3
2018-06-17T01:45:37.234Z,64.3
2018-06-17T01:46:37.081Z,64.27
2018-06-17T01:47:37.065Z,64.28
2018-06-17T01:48:37.210Z,64.29
2018-06-17T01:49:37.238Z,64.28
2018-06-17T01:50:37.558Z,64.28
2018-06-17T01:51:37.062Z,64.3
2018-06-17T01:52:37.035Z,64.29
2018-06-17T01:53:37.007Z,64.3
2018-06-17T01:54:37.084Z,64.31
2018-06-17T01:55:36.886Z,64.3
2018-06-17T01:56:36.972Z,64.3
2018-06-17T01:57:37.148Z,64.32
2018-06-17T01:58:37.036Z,64.29
2018-06-17T01:59:37.192Z,64.3
2018-06-17T02:00:37.221Z,64.31
2018-06-17T02:01:37.259Z,64.32
2018-06-17T02:02:36.985Z,64.29
2018-06-17T02:03:37.154Z,64.3
2018-06-17T02:04:36.950Z,64.3
2018-06-17T02:05:37.184Z,64.31
2018-06-17T02:06:37.132Z,64.32
2018-06-17T02:07:36.994Z,64.29
2018-06-17T02:08:37.286Z,64.3
2018-06-17T02:09:37.125Z,64.31
2018-06-17T02:10:37.151Z,64.29
2018-06-17T02:11:37.056Z,64.3
2018-06-17T02:12:37.167Z,64.32
2018-06-17T02:13:36.798Z,64.27
2018-06-17T02:14:37.040Z,64.34
2018-06-17T02:15:37.076Z,64.28
2018-06-17T02:16:37.157Z,64.3
2018-06-17T02:17:37.101Z,64.32
2018-06-17T02:18:37.189Z,64.33
2018-06-17T02:19:37.113Z,64.35
2018-06-17T02:20:37.128Z,64.33
2018-06-17T02:21:36.987Z,64.32
2018-06-17T02:22:37.003Z,64.33
2018-06-17T02:23:37.066Z,64.3
2018-06-17T02:24:37.127Z,64.32
2018-06-17T02:25:37.177Z,64.33
2018-06-17T02:26:37.072Z,64.28
2018-06-17T02:27:37.029Z,64.31
2018-06-17T02:28:37.057Z,64.29
2018-06-17T02:29:37.064Z,64.28
2018-06-17T02:30:36.990Z,64.31
2018-06-17T02:31:37.151Z,64.29
2018-06-17T02:32:37.022Z,64.29
2018-06-17T02:33:37.061Z,64.32
2018-06-17T02:34:37.050Z,64.27
2018-06-17T02:35:37.119Z,64.29
2018-06-17T02:36:37.069Z,64.3
2018-06-17T02:37:37.161Z,64.3
2018-06-17T02:38:36.980Z,64.23
2018-06-17T02:39:37.184Z,64.25
2018-06-17T02:40:36.891Z,64.26
2018-06-17T02:41:36.971Z,64.27
2018-06-17T02:42:37.062Z,64.25
2018-06-17T02:43:37.088Z,64.3
2018-06-17T02:44:37.035Z,64.27
2018-06-17T02:45:37.156Z,64.27
2018-06-17T02:46:36.968Z,64.28
2018-06-17T02:47:37.073Z,64.28
2018-06-17T02:48:37.274Z,64.27
2018-06-17T02:49:36.969Z,64.27
2018-06-17T02:50:37.221Z,64.27
2018-06-17T02:51:37.017Z,64.27
2018-06-17T02:52:37.063Z,64.22
2018-06-17T02:53:37.079Z,64.26
2018-06-17T02:54:37.097Z,64.27
2018-06-17T02:55:37.070Z,64.28
2018-06-17T02:56:36.937Z,64.27
2018-06-17T02:57:37.084Z,64.29
2018-06-17T02:58:36.893Z,64.31
2018-06-17T02:59:37.086Z,64.27
2018-06-17T03:00:37.022Z,64.24
2018-06-17T03:01:37.247Z,64.26
2018-06-17T03:02:37.006Z,64.28
2018-06-17T03:03:37.159Z,64.3
2018-06-17T03:04:37.108Z,64.31
2018-06-17T03:05:37.000Z,64.27
2018-06-17T03:06:37.267Z,64.29
2018-06-17T03:07:36.976Z,64.31
2018-06-17T03:08:36.994Z,64.26
2018-06-17T03:09:37.149Z,64.29
2018-06-17T03:10:37.117Z,64.3
2018-06-17T03:11:37.211Z,64.3
2018-06-17T03:12:37.130Z,64.28
2018-06-17T03:13:37.088Z,64.31
2018-06-17T03:14:37.146Z,64.3
2018-06-17T03:15:37.074Z,64.27
2018-06-17T03:16:37.037Z,64.28
2018-06-17T03:17:37.093Z,64.25
2018-06-17T03:18:37.133Z,64.26
2018-06-17T03:19:37.328Z,64.33
2018-06-17T03:20:37.183Z,64.27
2018-06-17T03:21:37.020Z,64.31
2018-06-17T03:22:37.082Z,64.3
2018-06-17T03:23:37.216Z,64.32
2018-06-17T03:24:36.930Z,64.34
2018-06-17T03:25:36.891Z,64.28
2018-06-17T03:26:37.041Z,64.3
2018-06-17T03:27:37.203Z,64.31
2018-06-17T03:28:37.069Z,64.29
2018-06-17T03:29:37.318Z,64.26
2018-06-17T03:30:37.153Z,64.28
2018-06-17T03:31:37.104Z,64.3
2018-06-17T03:32:37.135Z,64.29
2018-06-17T03:33:37.066Z,64.31
2018-06-17T03:34:37.089Z,64.29
2018-06-17T03:35:37.028Z,64.29
2018-06-17T03:36:36.952Z,64.3
2018-06-17T03:37:36.943Z,64.29
2018-06-17T03:38:37.098Z,64.27
2018-06-17T03:39:37.117Z,64.29
2018-06-17T03:40:37.102Z,64.29
2018-06-17T03:41:37.142Z,64.33
2018-06-17T03:42:37.107Z,64.29
2018-06-17T03:43:36.982Z,64.28
2018-06-17T03:44:36.920Z,64.3
2018-06-17T03:45:36.894Z,64.3
2018-06-17T03:46:36.949Z,64.32
2018-06-17T03:47:36.990Z,64.3
2018-06-17T03:48:37.027Z,64.31
2018-06-17T03:49:37.121Z,64.27
2018-06-17T03:50:36.903Z,64.31
2018-06-17T03:51:36.952Z,64.35
2018-06-17T03:52:36.984Z,64.32
2018-06-17T03:53:37.114Z,64.31
2018-06-17T03:54:36.820Z,64.32
2018-06-17T03:55:36.938Z,64.31
2018-06-17T03:56:36.985Z,64.3
2018-06-17T03:57:36.982Z,64.29
2018-06-17T03:58:37.097Z,64.33
2018-06-17T03:59:36.912Z,64.31
2018-06-17T04:00:37.095Z,64.33
2018-06-17T04:01:37.087Z,64.31
2018-06-17T04:02:36.915Z,64.32
2018-06-17T04:03:36.890Z,64.3
2018-06-17T04:04:37.131Z,64.36
2018-06-17T04:05:36.915Z,64.33
2018-06-17T04:06:37.229Z,64.33
2018-06-17T04:07:37.092Z,64.32
2018-06-17T04:08:37.235Z,64.35
2018-06-17T04:09:36.998Z,64.34
2018-06-17T04:10:37.095Z,64.33
2018-06-17T04:11:37.119Z,64.33
2018-06-17T04:12:36.878Z,64.35
2018-06-17T04:13:37.089Z,64.37
2018-06-17T04:14:37.149Z,64.33
2018-06-17T04:15:37.015Z,64.33
2018-06-17T04:16:37.155Z,64.36
2018-06-17T04:17:37.046Z,64.32
2018-06-17T04:18:37.144Z,64.36
2018-06-17T04:19:36.954Z,64.35
2018-06-17T04:20:36.941Z,64.36
2018-06-17T04:21:36.928Z,64.38
2018-06-17T04:22:37.148Z,64.35
2018-06-17T04:23:37.006Z,64.36
2018-06-17T04:24:36.982Z,64.37
2018-06-17T04:25:37.562Z,64.35
2018-06-17T04:26:36.987Z,64.32
2018-06-17T04:27:36.929Z,64.35
2018-06-17T04:28:37.198Z,64.35
2018-06-17T04:29:36.902Z,64.38
2018-06-17T04:30:36.868Z,64.37
2018-06-17T04:31:36.949Z,64.35
2018-06-17T04:32:37.117Z,64.35
2018-06-17T04:33:37.108Z,64.33
2018-06-17T04:34:37.075Z,64.36
2018-06-17T04:35:37.108Z,64.34
2018-06-17T04:36:37.221Z,64.37
2018-06-17T04:37:36.964Z,64.38
2018-06-17T04:38:37.136Z,64.36
2018-06-17T04:39:46.990Z,64.39
2018-06-17T04:40:37.279Z,64.34
2018-06-17T04:41:37.070Z,64.34
2018-06-17T04:42:37.011Z,64.37
2018-06-17T04:43:37.114Z,64.36
2018-06-17T04:44:37.092Z,64.34
2018-06-17T04:45:37.147Z,64.39
2018-06-17T04:46:37.028Z,64.36
2018-06-17T04:47:37.059Z,64.36
2018-06-17T04:48:37.090Z,64.33
2018-06-17T04:49:36.897Z,64.33
2018-06-17T04:50:36.972Z,64.35
2018-06-17T04:51:37.118Z,64.38
2018-06-17T04:52:36.944Z,64.35
2018-06-17T04:53:36.979Z,64.33
2018-06-17T04:54:36.938Z,64.37
2018-06-17T04:55:36.888Z,64.36
2018-06-17T04:56:36.982Z,64.35
2018-06-17T04:57:37.017Z,64.38
2018-06-17T04:58:37.071Z,64.35
2018-06-17T04:59:37.048Z,64.37
2018-06-17T05:00:36.998Z,64.35
2018-06-17T05:01:36.932Z,64.36
2018-06-17T05:02:37.077Z,64.38
2018-06-17T05:03:37.041Z,64.35
2018-06-17T05:04:36.847Z,64.36
2018-06-17T05:05:37.034Z,64.36
2018-06-17T05:06:37.123Z,64.36
2018-06-17T05:07:36.947Z,64.35
2018-06-17T05:08:36.977Z,64.35
2018-06-17T05:09:37.019Z,64.36
2018-06-17T05:10:37.212Z,64.37
2018-06-17T05:11:36.980Z,64.33
2018-06-17T05:12:37.132Z,64.33
2018-06-17T05:13:47.237Z,64.33
2018-06-17T05:14:37.185Z,64.34
2018-06-17T05:15:36.921Z,64.33
2018-06-17T05:16:37.033Z,64.33
2018-06-17T05:17:36.983Z,64.36
2018-06-17T05:18:37.266Z,64.34
2018-06-17T05:19:36.919Z,64.35
2018-06-17T05:20:36.876Z,64.36
2018-06-17T05:21:37.642Z,64.35
2018-06-17T05:22:37.004Z,64.34
2018-06-17T05:23:46.898Z,64.37
2018-06-17T05:24:37.352Z,64.36
2018-06-17T05:25:37.026Z,64.41
2018-06-17T05:26:37.153Z,64.32
2018-06-17T05:27:37.105Z,64.38
2018-06-17T05:28:37.339Z,64.36
2018-06-17T05:29:37.204Z,64.37
2018-06-17T05:30:37.008Z,64.34
2018-06-17T05:31:37.105Z,64.31
2018-06-17T05:32:37.051Z,64.37
2018-06-17T05:33:36.907Z,64.38
2018-06-17T05:34:36.909Z,64.35
2018-06-17T05:35:37.081Z,64.36
2018-06-17T05:36:36.916Z,64.38
2018-06-17T05:37:37.183Z,64.35
2018-06-17T05:38:36.900Z,64.36
2018-06-17T05:39:36.930Z,64.35
2018-06-17T05:40:36.943Z,64.35
2018-06-17T05:41:37.199Z,64.31
2018-06-17T05:42:37.079Z,64.36
2018-06-17T05:43:36.961Z,64.34
2018-06-17T05:44:37.117Z,64.35
2018-06-17T05:45:37.104Z,64.37
2018-06-17T05:46:36.987Z,64.35
2018-06-17T05:47:37.937Z,64.32
2018-06-17T05:48:36.796Z,64.35
2018-06-17T05:49:37.044Z,64.35
2018-06-17T05:50:37.112Z,64.39
2018-06-17T05:51:37.113Z,64.36
2018-06-17T05:52:36.970Z,64.35
2018-06-17T05:53:37.008Z,64.33
2018-06-17T05:54:37.023Z,64.34
2018-06-17T05:55:37.778Z,64.35
2018-06-17T05:56:37.003Z,64.36
2018-06-17T05:57:36.875Z,64.34
2018-06-17T05:58:36.989Z,64.35
2018-06-17T05:59:36.889Z,64.36
2018-06-17T06:00:37.104Z,64.37
2018-06-17T06:01:37.089Z,64.34
2018-06-17T06:02:37.057Z,64.33
2018-06-17T06:03:36.949Z,64.35
2018-06-17T06:04:37.124Z,64.36
2018-06-17T06:05:36.974Z,64.37
2018-06-17T06:06:36.887Z,64.35
2018-06-17T06:07:37.033Z,64.34
2018-06-17T06:08:37.039Z,64.35
2018-06-17T06:09:36.951Z,64.34
2018-06-17T06:10:36.894Z,64.37
2018-06-17T06:11:37.012Z,64.35
2018-06-17T06:12:37.132Z,64.36
2018-06-17T06:13:36.948Z,64.36
2018-06-17T06:14:37.029Z,64.33
2018-06-17T06:15:36.852Z,64.35
2018-06-17T06:16:37.069Z,64.35
2018-06-17T06:17:37.228Z,64.35
2018-06-17T06:18:37.080Z,64.31
2018-06-17T06:19:36.908Z,64.35
2018-06-17T06:20:36.931Z,64.34
2018-06-17T06:21:37.175Z,64.35
2018-06-17T06:22:37.076Z,64.37
2018-06-17T06:23:36.952Z,64.32
2018-06-17T06:24:37.080Z,64.3
2018-06-17T06:25:37.222Z,64.29
2018-06-17T06:26:37.170Z,64.35
2018-06-17T06:27:37.146Z,64.37
2018-06-17T06:28:36.993Z,64.36
2018-06-17T06:29:36.852Z,64.35
2018-06-17T06:30:36.982Z,64.35
2018-06-17T06:31:37.167Z,64.36
2018-06-17T06:32:37.079Z,64.35
2018-06-17T06:33:36.825Z,64.35
2018-06-17T06:34:37.016Z,64.35
2018-06-17T06:35:37.023Z,64.36
2018-06-17T06:36:36.810Z,64.35
2018-06-17T06:37:37.167Z,64.33
2018-06-17T06:38:36.971Z,64.35
2018-06-17T06:39:37.044Z,64.34
2018-06-17T06:40:37.024Z,64.31
2018-06-17T06:41:37.085Z,64.36
2018-06-17T06:42:36.937Z,64.35
2018-06-17T06:43:37.284Z,64.36
2018-06-17T06:44:37.047Z,64.35
2018-06-17T06:45:37.419Z,64.38
2018-06-17T06:46:37.109Z,64.35
2018-06-17T06:47:36.925Z,64.35
2018-06-17T06:48:37.104Z,64.36
2018-06-17T06:49:36.935Z,64.35
2018-06-17T06:50:36.888Z,64.35
2018-06-17T06:51:36.898Z,64.32
2018-06-17T06:52:36.936Z,64.32
2018-06-17T06:53:36.905Z,64.32
2018-06-17T06:54:37.027Z,64.3
2018-06-17T06:55:37.133Z,64.33
2018-06-17T06:56:36.941Z,64.35
2018-06-17T06:57:37.006Z,64.34
2018-06-17T06:58:37.209Z,64.35
2018-06-17T06:59:37.190Z,64.37
2018-06-17T07:00:36.861Z,64.37
2018-06-17T07:01:37.013Z,64.37
2018-06-17T07:02:37.095Z,64.32
2018-06-17T07:03:37.137Z,64.34
2018-06-17T07:04:37.140Z,64.34
2018-06-17T07:05:37.071Z,64.32
2018-06-17T07:06:36.930Z,64.33
2018-06-17T07:07:36.929Z,64.35
2018-06-17T07:08:37.063Z,64.34
2018-06-17T07:09:36.800Z,64.35
2018-06-17T07:10:37.173Z,64.34
2018-06-17T07:11:37.058Z,64.39
2018-06-17T07:12:37.107Z,64.33
2018-06-17T07:13:36.887Z,64.35
2018-06-17T07:14:36.865Z,64.33
2018-06-17T07:15:36.985Z,64.36
2018-06-17T07:16:37.004Z,64.34
2018-06-17T07:17:36.910Z,64.32
2018-06-17T07:18:36.901Z,64.34
2018-06-17T07:19:37.104Z,64.32
2018-06-17T07:20:36.966Z,64.33
2018-06-17T07:21:37.007Z,64.34
2018-06-17T07:22:36.933Z,64.31
2018-06-17T07:23:36.942Z,64.34
2018-06-17T07:24:36.923Z,64.34
2018-06-17T07:25:36.925Z,64.33
2018-06-17T07:26:36.968Z,64.34
2018-06-17T07:27:36.834Z,64.34
2018-06-17T07:28:37.065Z,64.34
2018-06-17T07:29:36.912Z,64.37
2018-06-17T07:30:37.072Z,64.34
2018-06-17T07:31:37.020Z,64.31
2018-06-17T07:32:37.426Z,64.35
2018-06-17T07:33:36.944Z,64.32
2018-06-17T07:34:36.865Z,64.37
2018-06-17T07:35:36.932Z,64.35
2018-06-17T07:36:36.847Z,64.35
2018-06-17T07:37:36.921Z,64.38
2018-06-17T07:38:37.061Z,64.32
2018-06-17T07:39:36.815Z,64.36
2018-06-17T07:40:36.932Z,64.37
2018-06-17T07:41:37.017Z,64.36
2018-06-17T07:42:36.889Z,64.36
2018-06-17T07:43:37.183Z,64.37
2018-06-17T07:44:37.080Z,64.36
2018-06-17T07:45:36.801Z,64.33
2018-06-17T07:46:36.885Z,64.35
2018-06-17T07:47:36.904Z,64.35
2018-06-17T07:48:37.088Z,64.35
2018-06-17T07:49:37.045Z,64.05
2018-06-17T07:50:36.877Z,64.15
2018-06-17T07:51:37.045Z,64.13
2018-06-17T07:52:37.133Z,64.03
2018-06-17T07:53:37.123Z,63.88
2018-06-17T07:54:36.870Z,63.62
2018-06-17T07:55:36.951Z,62.95
2018-06-17T07:56:37.061Z,61.71
2018-06-17T07:57:36.881Z,60.53
2018-06-17T07:58:37.118Z,59.37
2018-06-17T07:59:36.881Z,60.54
2018-06-17T08:00:37.194Z,59.74
2018-06-17T08:01:36.988Z,59.88
2018-06-17T08:02:36.839Z,61
2018-06-17T08:03:36.860Z,61.37
2018-06-17T08:04:37.587Z,61.01
2018-06-17T08:05:36.996Z,61.03
2018-06-17T08:06:36.819Z,61.22
2018-06-17T08:07:37.101Z,60.82
2018-06-17T08:08:37.012Z,60.86
2018-06-17T08:09:37.024Z,60.84
2018-06-17T08:10:36.951Z,60.95
2018-06-17T08:11:36.894Z,61.01
2018-06-17T08:12:36.871Z,61.35
2018-06-17T08:13:36.848Z,61.61
2018-06-17T08:14:36.951Z,61.39
2018-06-17T08:15:37.112Z,61.41
2018-06-17T08:16:37.016Z,61.63
2018-06-17T08:17:37.103Z,61.65
2018-06-17T08:18:36.904Z,61.75
2018-06-17T08:19:37.017Z,61.92
2018-06-17T08:20:36.964Z,62.06
2018-06-17T08:21:36.798Z,61.97
2018-06-17T08:22:36.872Z,62.12
2018-06-17T08:23:36.876Z,62.08
2018-06-17T08:24:36.920Z,62.15
2018-06-17T08:25:37.022Z,62.28
2018-06-17T08:26:37.041Z,62.33
2018-06-17T08:27:37.294Z,62.28
2018-06-17T08:28:37.589Z,62.33
2018-06-17T08:29:38.205Z,62.33
2018-06-17T08:30:47.897Z,62.4
2018-06-17T08:31:37.748Z,62.43
2018-06-17T08:32:37.792Z,62.42
2018-06-17T08:33:38.791Z,62.15
2018-06-17T08:34:38.243Z,62.08
2018-06-17T08:35:37.665Z,62.12
2018-06-17T08:36:36.829Z,62.2
2018-06-17T08:37:36.839Z,62.13
2018-06-17T08:38:36.839Z,62.26
2018-06-17T08:39:37.054Z,62.25
2018-06-17T08:40:36.984Z,62.34
2018-06-17T08:41:36.898Z,62.32
2018-06-17T08:42:36.858Z,62.32
2018-06-17T08:43:37.075Z,62.36
2018-06-17T08:44:37.004Z,62.37
2018-06-17T08:45:37.010Z,62.47
2018-06-17T08:46:36.824Z,62.45
2018-06-17T08:47:36.890Z,62.43
2018-06-17T08:48:37.209Z,62.54
2018-06-17T08:49:36.902Z,62.6
2018-06-17T08:50:36.966Z,62.6
2018-06-17T08:51:36.822Z,62.58
2018-06-17T08:52:36.868Z,62.6
2018-06-17T08:53:36.987Z,62.64
2018-06-17T08:54:36.950Z,62.65
2018-06-17T08:55:36.835Z,62.66
2018-06-17T08:56:37.026Z,62.69
2018-06-17T08:57:36.952Z,62.76
2018-06-17T08:58:37.053Z,62.72
2018-06-17T08:59:37.001Z,62.76
2018-06-17T09:00:37.010Z,62.78
2018-06-17T09:01:36.902Z,62.77
2018-06-17T09:02:37.063Z,62.81
2018-06-17T09:03:37.001Z,62.85
2018-06-17T09:04:37.188Z,62.83
2018-06-17T09:05:36.863Z,62.93
2018-06-17T09:06:36.913Z,62.92
2018-06-17T09:07:36.928Z,62.93
2018-06-17T09:08:36.961Z,62.94
2018-06-17T09:09:37.350Z,63
2018-06-17T09:10:37.079Z,62.94
2018-06-17T09:11:37.017Z,62.99
2018-06-17T09:12:36.842Z,62.97
2018-06-17T09:13:36.982Z,63.01
2018-06-17T09:14:37.007Z,62.99
2018-06-17T09:15:37.098Z,62.99
2018-06-17T09:16:36.926Z,63.05
2018-06-17T09:17:37.285Z,63.01
2018-06-17T09:18:37.045Z,63.01
2018-06-17T09:19:36.999Z,63
2018-06-17T09:20:36.968Z,63
2018-06-17T09:21:37.188Z,63.03
2018-06-17T09:22:36.821Z,63.02
2018-06-17T09:23:37.075Z,63
2018-06-17T09:24:36.995Z,62.99
2018-06-17T09:25:36.994Z,63.01
2018-06-17T09:26:36.918Z,62.99
2018-06-17T09:27:37.120Z,63.01
2018-06-17T09:28:36.867Z,63
2018-06-17T09:29:36.984Z,62.97
2018-06-17T09:30:37.194Z,63.04
2018-06-17T09:31:37.105Z,62.95
2018-06-17T09:32:37.111Z,62.99
2018-06-17T09:33:37.085Z,62.96
2018-06-17T09:34:36.966Z,63
2018-06-17T09:35:36.991Z,63.03
2018-06-17T09:36:37.017Z,63.13
2018-06-17T09:37:37.014Z,63.07
2018-06-17T09:38:36.986Z,63.06
2018-06-17T09:39:36.975Z,63.11
2018-06-17T09:40:36.859Z,63.05
2018-06-17T09:41:36.819Z,63.15
2018-06-17T09:42:36.920Z,63.19
2018-06-17T09:43:36.870Z,63.04
2018-06-17T09:44:36.849Z,62.97
2018-06-17T09:45:37.017Z,63.07
2018-06-17T09:46:36.839Z,63.38
2018-06-17T09:47:36.940Z,63.41
2018-06-17T09:48:36.896Z,63.31
2018-06-17T09:49:36.827Z,63.31
2018-06-17T09:50:36.849Z,63.33
2018-06-17T09:51:36.992Z,63.32
2018-06-17T09:52:36.956Z,63.31
2018-06-17T09:53:36.850Z,63.27
2018-06-17T09:54:36.989Z,63.29
2018-06-17T09:55:37.012Z,63.27
2018-06-17T09:56:36.966Z,63.31
2018-06-17T09:57:36.819Z,63.25
2018-06-17T09:58:36.820Z,63.27
2018-06-17T09:59:37.064Z,63.23
2018-06-17T10:00:37.054Z,63.26
2018-06-17T10:01:37.499Z,63.26
2018-06-17T10:02:37.009Z,63.25
2018-06-17T10:03:37.048Z,63.25
2018-06-17T10:04:37.097Z,63.23
2018-06-17T10:05:37.162Z,63.23
2018-06-17T10:06:37.118Z,63.24
2018-06-17T10:07:36.871Z,63.27
2018-06-17T10:08:36.994Z,63.3
2018-06-17T10:09:37.057Z,63.26
2018-06-17T10:10:36.801Z,63.26
2018-06-17T10:11:36.881Z,63.25
2018-06-17T10:12:36.830Z,63.23
2018-06-17T10:13:37.085Z,63.23
2018-06-17T10:14:36.826Z,63.29
2018-06-17T10:15:37.037Z,63.3
2018-06-17T10:16:36.910Z,63.33
2018-06-17T10:17:36.926Z,63.35
2018-06-17T10:18:37.022Z,63.3
2018-06-17T10:19:37.098Z,63.31
2018-06-17T10:20:37.106Z,63.31
2018-06-17T10:21:37.002Z,63.37
2018-06-17T10:22:36.816Z,63.37
2018-06-17T10:23:36.955Z,63.4
2018-06-17T10:24:36.926Z,63.42
2018-06-17T10:25:36.987Z,63.43
2018-06-17T10:26:36.782Z,63.46
2018-06-17T10:27:36.925Z,63.43
2018-06-17T10:28:36.858Z,63.43
2018-06-17T10:29:37.262Z,63.41
2018-06-17T10:30:36.997Z,63.41
2018-06-17T10:31:36.923Z,63.41
2018-06-17T10:32:36.905Z,63.41
2018-06-17T10:33:36.964Z,63.39
2018-06-17T10:34:37.047Z,63.43
2018-06-17T10:35:36.951Z,63.42
2018-06-17T10:36:36.778Z,63.44
2018-06-17T10:37:36.894Z,63.44
2018-06-17T10:38:36.907Z,63.44
2018-06-17T10:39:36.847Z,63.45
2018-06-17T10:40:36.836Z,63.44
2018-06-17T10:41:36.986Z,63.47
2018-06-17T10:42:36.823Z,63.54
2018-06-17T10:43:37.782Z,63.46
2018-06-17T10:44:36.825Z,63.49
2018-06-17T10:45:36.747Z,63.62
2018-06-17T10:46:37.061Z,63.54
2018-06-17T10:47:37.281Z,63.51
2018-06-17T10:48:36.982Z,63.7
2018-06-17T10:49:36.999Z,63.67
2018-06-17T10:50:38.152Z,63.67
2018-06-17T10:51:36.837Z,63.71
2018-06-17T10:52:36.940Z,63.68
2018-06-17T10:53:37.056Z,63.7
2018-06-17T10:54:36.696Z,63.67
2018-06-17T10:55:37.670Z,63.7
2018-06-17T10:56:36.840Z,63.67
2018-06-17T10:57:37.058Z,63.71
2018-06-17T10:58:37.186Z,63.68
2018-06-17T10:59:36.996Z,63.68
2018-06-17T11:00:36.871Z,63.85
2018-06-17T11:01:36.789Z,63.89
2018-06-17T11:02:36.981Z,63.82
2018-06-17T11:03:46.973Z,63.8
2018-06-17T11:04:36.792Z,63.76
2018-06-17T11:05:38.102Z,63.78
2018-06-17T11:06:37.019Z,63.83
2018-06-17T11:07:37.041Z,63.79
2018-06-17T11:08:36.783Z,63.76
2018-06-17T11:09:37.061Z,63.76
2018-06-17T11:10:36.852Z,63.8
2018-06-17T11:11:36.921Z,63.76
2018-06-17T11:12:36.982Z,63.76
2018-06-17T11:13:36.931Z,63.77
2018-06-17T11:14:37.110Z,63.84
2018-06-17T11:15:36.968Z,63.82
2018-06-17T11:16:37.143Z,63.86
2018-06-17T11:17:36.825Z,63.83
2018-06-17T11:18:37.007Z,63.92
2018-06-17T11:19:37.555Z,63.91
2018-06-17T11:20:37.114Z,63.95
2018-06-17T11:21:36.847Z,63.9
2018-06-17T11:22:36.961Z,64.05
2018-06-17T11:23:36.945Z,63.92
2018-06-17T11:24:36.841Z,63.97
2018-06-17T11:25:37.017Z,64.04
2018-06-17T11:26:37.446Z,63.97
2018-06-17T11:27:37.058Z,64.02
2018-06-17T11:28:36.981Z,64.03
2018-06-17T11:29:37.047Z,63.96
2018-06-17T11:30:36.962Z,64.08
2018-06-17T11:31:37.102Z,64.08
2018-06-17T11:32:36.883Z,64.07
2018-06-17T11:33:39.599Z,64.1
2018-06-17T11:34:36.838Z,64
2018-06-17T11:35:36.834Z,64.03
2018-06-17T11:36:36.935Z,64.01
2018-06-17T11:37:36.838Z,64
2018-06-17T11:38:36.820Z,64
2018-06-17T11:39:37.005Z,63.97
2018-06-17T11:40:36.824Z,64.05
2018-06-17T11:41:37.011Z,64.05
2018-06-17T11:42:36.923Z,64.1
2018-06-17T11:43:36.896Z,64.14
2018-06-17T11:44:37.759Z,64.04
2018-06-17T11:45:36.864Z,64.03
2018-06-17T11:46:36.994Z,64.03
2018-06-17T11:47:36.926Z,64.2
2018-06-17T11:48:37.271Z,64.17
2018-06-17T11:49:37.022Z,64.3
2018-06-17T11:50:36.731Z,64.36
2018-06-17T11:51:37.095Z,64.47
2018-06-17T11:52:36.966Z,64.53
2018-06-17T11:53:37.032Z,64.45
2018-06-17T11:54:36.874Z,64.35
2018-06-17T11:55:36.832Z,64.5
2018-06-17T11:56:37.000Z,64.46
2018-06-17T11:57:37.006Z,64.42
2018-06-17T11:58:36.827Z,64.27
2018-06-17T11:59:37.332Z,64.25
2018-06-17T12:00:36.844Z,64.21
2018-06-17T12:01:37.280Z,64.38
2018-06-17T12:02:36.958Z,64.35
2018-06-17T12:03:36.952Z,64.48
2018-06-17T12:04:37.199Z,64.59
2018-06-17T12:05:37.738Z,64.38
2018-06-17T12:06:37.044Z,64.29
2018-06-17T12:07:36.944Z,64.37
2018-06-17T12:08:36.825Z,64.27
2018-06-17T12:09:37.017Z,64.18
2018-06-17T12:10:36.833Z,64.21
2018-06-17T12:11:36.989Z,64.27
2018-06-17T12:12:36.969Z,64.21
2018-06-17T12:13:37.009Z,64.23
2018-06-17T12:14:36.998Z,64.03
2018-06-17T12:15:37.064Z,64.1
2018-06-17T12:16:36.888Z,64.19
2018-06-17T12:17:36.969Z,64.05
2018-06-17T12:18:36.834Z,64.16
2018-06-17T12:19:36.798Z,64.27
2018-06-17T12:20:37.020Z,64.15
2018-06-17T12:21:37.228Z,64.1
2018-06-17T12:22:36.953Z,63.52
2018-06-17T12:23:36.847Z,63.65
2018-06-17T12:24:36.853Z,63.97
2018-06-17T12:25:36.964Z,63.93
2018-06-17T12:26:37.182Z,63.68
2018-06-17T12:27:37.038Z,63.59
2018-06-17T12:28:36.966Z,63.91
2018-06-17T12:29:37.256Z,63.85
2018-06-17T12:30:36.998Z,63.78
2018-06-17T12:31:37.035Z,63.81
2018-06-17T12:32:36.954Z,64.03
2018-06-17T12:33:15.926Z,64.78
2018-06-17T12:34:15.934Z,64.01
2018-06-17T12:35:16.027Z,64.13
2018-06-17T12:36:16.032Z,64.3
2018-06-17T12:37:16.045Z,64.39
2018-06-17T12:38:16.010Z,64.39
2018-06-17T12:39:15.757Z,64.56
2018-06-17T12:40:15.858Z,64.63
2018-06-17T12:41:15.797Z,64.52
2018-06-17T12:42:15.804Z,64.33
2018-06-17T12:43:15.847Z,64.55
2018-06-17T12:44:15.761Z,64.7
2018-06-17T12:45:15.622Z,64.54
2018-06-17T12:46:15.906Z,64.64
2018-06-17T12:47:15.760Z,64.45
2018-06-17T12:48:15.898Z,64.57
2018-06-17T12:49:15.757Z,64.52
2018-06-17T12:50:16.623Z,64.52
2018-06-17T12:51:15.685Z,64.62
2018-06-17T12:52:15.761Z,64.54
2018-06-17T12:52:58.003Z,64.68
2018-06-17T12:53:58.019Z,64.7
2018-06-17T12:54:58.186Z,64.9